createdAt,value
2018-06-10T00:00:13.353Z,16.48
2018-06-10T00:02:45.344Z,16.43
2018-06-10T00:05:17.303Z,16.29
2018-06-10T00:07:50.142Z,16.30
2018-06-10T00:10:22.174Z,16.33
2018-06-10T00:12:54.186Z,16.28
2018-06-10T00:15:26.183Z,16.31
2018-06-10T00:17:58.214Z,16.28
2018-06-10T00:20:30.919Z,16.29
2018-06-10T00:23:02.956Z,16.25
2018-06-10T00:25:34.927Z,16.17
2018-06-10T00:28:06.919Z,16.17
2018-06-10T00:30:38.899Z,16.27
2018-06-10T00:33:10.876Z,16.26
2018-06-10T00:35:42.882Z,16.17
2018-06-10T00:38:14.872Z,16.12
2018-06-10T00:40:46.825Z,16.20
2018-06-10T00:43:18.832Z,16.16
2018-06-10T00:45:50.835Z,16.10
2018-06-10T00:48:22.847Z,15.99
2018-06-10T00:50:54.850Z,15.94
2018-06-10T00:53:26.849Z,15.97
2018-06-10T00:56:00.319Z,15.99
2018-06-10T00:58:32.335Z,16.03
2018-06-10T01:01:04.355Z,16.07
2018-06-10T01:03:36.367Z,16.03
2018-06-10T01:06:08.340Z,15.96
2018-06-10T01:08:40.383Z,15.97
2018-06-10T01:11:12.367Z,15.92
2018-06-10T01:13:44.397Z,15.87
2018-06-10T01:16:16.375Z,15.87
2018-06-10T01:18:48.347Z,15.84
2018-06-10T01:21:20.307Z,15.79
2018-06-10T01:23:52.302Z,15.83
2018-06-10T01:26:30.134Z,15.85
2018-06-10T01:29:02.152Z,15.84
2018-06-10T01:31:34.159Z,15.91
2018-06-10T01:34:06.197Z,15.90
2018-06-10T01:36:38.179Z,15.88
2018-06-10T01:39:10.170Z,15.85
2018-06-10T01:41:42.146Z,15.86
2018-06-10T01:44:14.115Z,15.82
2018-06-10T01:46:46.081Z,15.74
2018-06-10T01:49:18.054Z,15.66
2018-06-10T01:51:50.054Z,15.63
2018-06-10T01:54:22.112Z,15.67
2018-06-10T01:56:54.092Z,15.63
2018-06-10T01:59:26.070Z,15.49
2018-06-10T02:01:58.059Z,15.60
2018-06-10T02:04:30.068Z,15.68
2018-06-10T02:07:02.040Z,15.65
2018-06-10T02:09:34.035Z,15.65
2018-06-10T02:12:05.986Z,15.63
2018-06-10T02:14:37.977Z,15.54
2018-06-10T02:17:09.989Z,15.55
2018-06-10T02:19:41.970Z,15.52
2018-06-10T02:22:13.960Z,15.55
2018-06-10T02:24:45.930Z,15.48
2018-06-10T02:27:17.892Z,15.34
2018-06-10T02:29:49.875Z,15.34
2018-06-10T02:32:21.829Z,15.28
2018-06-10T02:34:53.858Z,15.24
2018-06-10T02:37:25.889Z,15.30
2018-06-10T02:39:57.875Z,15.30
